Time;durP1;ratioP1;P1;durP2;ratioP2;P2;SDS_P1;SDS_P2;PMS_P1;PMS_P2;Temp;Humidity;BMP_temperature;BMP_pressure;BME280_temperature;BME280_humidity;BME280_pressure;Samples;Min_cycle;Max_cycle;Signal;HPM_P1;HPM_P2
2022/04/27 00:00:34;;;;;;;8.13;3.25;;;9.70;99.90;;;;;;5055034;28;20021;-64
2022/04/27 00:03:03;;;;;;;6.63;2.92;;;9.70;99.90;;;;;;5054670;28;20066;-66
2022/04/27 00:05:29;;;;;;;7.80;3.20;;;9.70;99.90;;;;;;5055191;28;20099;-66
2022/04/27 00:07:55;;;;;;;8.07;2.90;;;9.70;99.90;;;;;;5054641;28;20094;-63
2022/04/27 00:10:21;;;;;;;6.43;2.80;;;9.70;99.90;;;;;;5052976;28;20063;-63
2022/04/27 00:12:47;;;;;;;12.05;5.10;;;9.80;99.90;;;;;;5056381;28;20025;-64
2022/04/27 00:15:14;;;;;;;7.95;2.80;;;9.80;99.90;;;;;;5053130;28;20475;-63
2022/04/27 00:17:40;;;;;;;8.15;3.13;;;9.80;99.90;;;;;;5053116;28;20461;-66
2022/04/27 00:20:07;;;;;;;12.32;3.08;;;9.80;99.90;;;;;;5051993;28;20501;-64
2022/04/27 00:22:35;;;;;;;6.53;2.85;;;9.80;99.90;;;;;;5053187;28;20029;-66
2022/04/27 00:25:03;;;;;;;7.90;3.60;;;9.90;99.90;;;;;;5052592;28;20079;-66
2022/04/27 00:27:29;;;;;;;9.20;2.97;;;9.90;99.90;;;;;;5052726;28;20609;-66
2022/04/27 00:29:56;;;;;;;6.63;3.10;;;9.90;99.90;;;;;;5052878;28;20021;-65
2022/04/27 00:32:22;;;;;;;6.85;3.15;;;9.90;99.90;;;;;;5052885;28;20071;-67
2022/04/27 00:34:47;;;;;;;9.43;3.15;;;9.90;99.90;;;;;;5052644;28;20025;-64
2022/04/27 00:37:18;;;;;;;7.85;3.33;;;9.90;99.90;;;;;;5051130;28;20043;-64
2022/04/27 00:39:44;;;;;;;8.50;3.90;;;10.00;99.90;;;;;;5053086;28;20060;-64
2022/04/27 00:42:21;;;;;;;9.40;3.10;;;9.90;99.90;;;;;;5052238;28;20045;-64
2022/04/27 00:44:48;;;;;;;8.02;2.90;;;10.00;99.90;;;;;;5033019;28;20067;-63
2022/04/27 00:47:15;;;;;;;9.15;3.22;;;10.00;99.90;;;;;;5032226;28;20021;-63
2022/04/27 00:49:45;;;;;;;9.18;3.55;;;9.90;99.90;;;;;;5033147;28;20113;-63
2022/04/27 00:52:12;;;;;;;16.05;3.85;;;9.90;99.90;;;;;;5033565;28;20199;-64
2022/04/27 00:54:41;;;;;;;10.13;3.75;;;9.80;99.90;;;;;;5033732;28;20116;-64
2022/04/27 00:57:07;;;;;;;5.85;3.30;;;9.80;99.90;;;;;;5033481;28;20083;-65
2022/04/27 00:59:33;;;;;;;8.82;4.00;;;9.80;99.90;;;;;;5033891;28;20036;-67
2022/04/27 01:01:58;;;;;;;6.45;3.35;;;9.80;99.90;;;;;;5033795;28;20453;-66
2022/04/27 01:04:24;;;;;;;15.80;4.45;;;9.80;99.90;;;;;;5033526;28;20116;-64
2022/04/27 01:06:50;;;;;;;9.68;3.70;;;9.80;99.90;;;;;;5033268;28;20053;-62
2022/04/27 01:09:17;;;;;;;9.52;3.95;;;9.70;99.90;;;;;;5033485;28;20032;-63
2022/04/27 01:11:44;;;;;;;9.85;3.78;;;9.70;99.90;;;;;;5033213;28;20025;-63
2022/04/27 01:14:10;;;;;;;5.65;3.20;;;9.70;99.90;;;;;;5033466;28;20036;-61
2022/04/27 01:16:36;;;;;;;7.82;3.35;;;9.60;99.90;;;;;;5033249;28;20018;-65
2022/04/27 01:19:02;;;;;;;10.63;3.75;;;9.50;99.90;;;;;;5033039;28;20144;-65
2022/04/27 01:21:28;;;;;;;8.35;3.50;;;9.40;99.90;;;;;;5033294;28;20033;-66
2022/04/27 01:23:54;;;;;;;8.65;3.80;;;9.30;99.90;;;;;;5040587;28;20036;-63
2022/04/27 01:26:20;;;;;;;9.18;3.20;;;9.30;99.90;;;;;;5053349;28;20033;-64
2022/04/27 01:28:46;;;;;;;9.20;4.25;;;9.20;99.90;;;;;;5053049;28;20045;-64
2022/04/27 01:31:12;;;;;;;7.05;2.97;;;9.10;99.90;;;;;;5053047;28;20031;-64
2022/04/27 01:33:38;;;;;;;10.85;4.57;;;9.10;99.90;;;;;;5052635;28;20047;-64
2022/04/27 01:36:06;;;;;;;8.60;3.90;;;9.00;99.90;;;;;;5051644;28;20458;-64
2022/04/27 01:38:40;;;;;;;11.15;3.72;;;9.00;99.90;;;;;;5049365;28;20071;-64
2022/04/27 01:41:06;;;;;;;10.15;4.55;;;8.90;99.90;;;;;;5051569;28;20048;-64
2022/04/27 01:43:33;;;;;;;11.68;3.97;;;8.90;99.90;;;;;;5051812;28;20048;-65
2022/04/27 01:46:00;;;;;;;10.60;4.13;;;8.80;99.90;;;;;;5051399;28;20021;-67
2022/04/27 01:48:28;;;;;;;9.27;3.70;;;8.70;99.90;;;;;;5051557;28;20108;-67
2022/04/27 01:50:54;;;;;;;8.93;3.38;;;8.70;99.90;;;;;;5057255;28;20031;-64
2022/04/27 01:56:05;;;;;;;7.28;3.65;;;8.70;99.90;;;;;;5057349;28;20506;-64
2022/04/27 01:58:31;;;;;;;8.02;3.72;;;8.60;99.90;;;;;;5062449;28;20061;-65
2022/04/27 02:00:57;;;;;;;7.53;3.60;;;8.50;99.90;;;;;;5057900;28;20118;-63
2022/04/27 02:03:25;;;;;;;6.85;3.88;;;8.50;99.90;;;;;;5061733;28;20032;-67
2022/04/27 02:05:56;;;;;;;9.07;4.28;;;8.50;99.90;;;;;;5058801;28;20104;-64
2022/04/27 02:08:22;;;;;;;9.38;4.20;;;8.40;99.90;;;;;;5057733;28;20441;-66
2022/04/27 02:10:47;;;;;;;10.40;4.35;;;8.30;99.90;;;;;;5056550;28;20025;-65
2022/04/27 02:13:13;;;;;;;10.25;4.50;;;8.30;99.90;;;;;;5057866;28;20702;-66
2022/04/27 02:15:39;;;;;;;8.43;4.03;;;8.20;99.90;;;;;;5057871;28;20475;-65
2022/04/27 02:18:06;;;;;;;14.02;4.35;;;8.20;99.90;;;;;;5057975;28;20032;-65
2022/04/27 02:20:31;;;;;;;12.07;4.80;;;8.10;99.90;;;;;;5055585;28;20051;-66
2022/04/27 02:22:57;;;;;;;9.15;4.40;;;8.10;99.90;;;;;;5058085;28;20052;-65
2022/04/27 02:25:23;;;;;;;14.20;4.13;;;8.10;99.90;;;;;;5057359;28;20449;-65
2022/04/27 02:27:52;;;;;;;14.90;4.55;;;8.10;99.90;;;;;;5058565;28;20417;-63
2022/04/27 02:30:18;;;;;;;8.80;4.03;;;8.10;99.90;;;;;;5059314;28;20032;-67
2022/04/27 02:32:45;;;;;;;8.35;4.25;;;8.10;99.90;;;;;;5058228;28;20108;-64
2022/04/27 02:35:13;;;;;;;9.05;4.00;;;8.10;99.90;;;;;;5058955;28;20025;-66
2022/04/27 02:37:38;;;;;;;17.17;5.82;;;8.10;99.90;;;;;;5059187;28;20013;-66
2022/04/27 02:40:05;;;;;;;13.38;5.03;;;8.10;99.90;;;;;;5059102;28;20095;-66
2022/04/27 02:42:31;;;;;;;12.43;4.60;;;8.20;99.90;;;;;;5058254;28;20025;-67
2022/04/27 02:44:57;;;;;;;10.77;4.35;;;8.30;99.90;;;;;;5058803;28;20499;-67
2022/04/27 02:47:23;;;;;;;12.07;4.38;;;8.30;99.90;;;;;;5059436;28;20115;-64
2022/04/27 02:52:33;;;;;;;10.48;3.88;;;8.50;99.90;;;;;;5058922;28;20051;-64
2022/04/27 02:54:59;;;;;;;9.68;4.32;;;8.60;99.90;;;;;;5057590;28;20029;-64
2022/04/27 02:57:25;;;;;;;13.55;4.63;;;8.70;99.90;;;;;;5058215;28;20368;-65
2022/04/27 02:59:50;;;;;;;15.13;5.22;;;8.80;99.90;;;;;;5058919;28;20021;-67
2022/04/27 03:02:16;;;;;;;7.15;3.65;;;8.90;99.90;;;;;;5055476;28;20024;-63
2022/04/27 03:04:42;;;;;;;8.15;3.95;;;8.90;99.90;;;;;;5055407;28;20475;-67
2022/04/27 03:07:08;;;;;;;11.13;4.75;;;9.10;99.90;;;;;;5054703;28;20518;-64
2022/04/27 03:09:34;;;;;;;11.15;4.28;;;9.10;99.90;;;;;;5054500;28;20025;-66
2022/04/27 03:11:59;;;;;;;14.55;4.90;;;9.20;99.90;;;;;;5055920;28;20021;-64
2022/04/27 03:14:25;;;;;;;11.10;4.60;;;9.20;99.90;;;;;;5055824;28;20025;-63
2022/04/27 03:16:52;;;;;;;10.98;4.00;;;9.30;99.90;;;;;;5055721;28;20056;-62
2022/04/27 03:19:18;;;;;;;13.75;3.92;;;9.30;99.90;;;;;;5055605;28;20104;-64
2022/04/27 03:21:44;;;;;;;9.45;3.97;;;9.40;99.90;;;;;;5055643;28;20115;-63
2022/04/27 03:24:09;;;;;;;7.95;3.70;;;9.50;99.90;;;;;;5053508;28;20098;-62
2022/04/27 03:26:35;;;;;;;10.70;3.60;;;9.50;99.90;;;;;;5055584;28;20021;-64
2022/04/27 03:29:01;;;;;;;7.70;3.40;;;9.50;99.90;;;;;;5055902;28;20107;-64
2022/04/27 03:31:26;;;;;;;6.60;3.40;;;9.60;99.90;;;;;;5055360;28;20017;-64
2022/04/27 03:33:52;;;;;;;17.23;4.60;;;9.60;99.90;;;;;;5055274;28;20028;-65
2022/04/27 03:36:18;;;;;;;9.30;4.00;;;9.60;99.90;;;;;;5054986;28;20353;-66
2022/04/27 03:38:43;;;;;;;12.30;3.60;;;9.60;99.90;;;;;;5053659;28;20028;-66
2022/04/27 03:41:09;;;;;;;9.32;4.35;;;9.70;99.90;;;;;;5055429;28;20503;-68
2022/04/27 03:43:35;;;;;;;9.98;3.55;;;9.70;99.90;;;;;;5055187;28;20021;-66
2022/04/27 03:46:01;;;;;;;11.68;4.05;;;9.70;99.90;;;;;;5055130;28;20051;-64
2022/04/27 03:48:26;;;;;;;12.00;3.63;;;9.70;99.90;;;;;;5055011;28;20035;-64
2022/04/27 03:50:53;;;;;;;10.57;3.53;;;9.70;99.90;;;;;;5054808;28;20074;-64
2022/04/27 03:53:18;;;;;;;7.85;3.90;;;9.80;99.90;;;;;;5074784;28;20467;-64
2022/04/27 03:55:44;;;;;;;11.77;5.38;;;9.80;99.90;;;;;;5074796;28;20025;-64
2022/04/27 03:58:10;;;;;;;11.23;3.67;;;9.80;99.90;;;;;;5075111;28;20031;-64
2022/04/27 04:00:36;;;;;;;14.93;5.07;;;9.80;99.90;;;;;;5075000;28;20025;-64
2022/04/27 04:03:02;;;;;;;10.50;3.38;;;9.80;99.90;;;;;;5073530;28;20107;-64
2022/04/27 04:05:29;;;;;;;9.30;3.70;;;9.90;99.90;;;;;;5074649;28;20032;-63
2022/04/27 04:07:55;;;;;;;9.38;3.53;;;9.90;99.90;;;;;;5073097;28;20060;-63
2022/04/27 04:10:21;;;;;;;10.25;3.30;;;9.90;99.90;;;;;;5073471;28;20032;-63
2022/04/27 04:12:47;;;;;;;12.27;3.83;;;9.90;99.90;;;;;;5072912;28;20031;-64
2022/04/27 04:15:13;;;;;;;5.93;2.97;;;9.90;99.90;;;;;;5074587;28;20368;-68
2022/04/27 04:17:45;;;;;;;8.55;3.28;;;9.80;99.90;;;;;;5074593;28;20031;-64
2022/04/27 04:20:17;;;;;;;12.48;4.32;;;9.90;99.90;;;;;;5074183;28;20100;-70
2022/04/27 04:22:43;;;;;;;9.30;4.05;;;9.90;99.90;;;;;;5074494;28;20087;-67
2022/04/27 04:30:37;;;;;;;12.48;3.53;;;9.90;99.90;;;;;;5074084;28;20035;-68
2022/04/27 04:33:03;;;;;;;8.48;3.58;;;9.90;99.90;;;;;;5074231;28;20028;-68
2022/04/27 04:35:29;;;;;;;8.10;3.40;;;9.90;99.90;;;;;;5074191;28;20017;-66
2022/04/27 04:37:55;;;;;;;8.48;3.95;;;9.90;99.90;;;;;;5074417;28;20456;-64
2022/04/27 04:40:21;;;;;;;9.00;3.72;;;9.90;99.90;;;;;;5074218;28;20017;-67
2022/04/27 04:42:46;;;;;;;12.27;4.30;;;9.90;99.90;;;;;;5074036;28;20464;-67
2022/04/27 04:45:12;;;;;;;8.63;3.50;;;10.00;99.90;;;;;;5073511;28;20028;-64
2022/04/27 04:47:38;;;;;;;9.93;3.72;;;10.00;99.90;;;;;;5072435;28;20024;-66
2022/04/27 04:50:04;;;;;;;11.88;4.45;;;9.90;99.90;;;;;;5073370;28;20028;-64
2022/04/27 04:52:30;;;;;;;9.20;3.40;;;10.00;99.90;;;;;;5060845;28;20013;-64
2022/04/27 04:54:55;;;;;;;6.05;3.00;;;10.00;99.90;;;;;;5053746;28;20472;-63
2022/04/27 04:57:21;;;;;;;10.35;3.40;;;10.00;99.90;;;;;;5060434;28;20380;-65
2022/04/27 04:59:47;;;;;;;8.38;3.45;;;10.10;99.90;;;;;;5058463;28;20445;-67
2022/04/27 05:02:12;;;;;;;9.30;4.13;;;10.10;99.90;;;;;;5052551;28;20012;-65
2022/04/27 05:04:38;;;;;;;10.20;3.50;;;10.10;99.90;;;;;;5053865;28;20037;-65
2022/04/27 05:07:04;;;;;;;11.43;3.60;;;10.10;99.90;;;;;;5053847;28;20055;-66
2022/04/27 05:09:30;;;;;;;8.52;3.13;;;10.10;99.90;;;;;;5054053;28;20028;-65
2022/04/27 05:11:55;;;;;;;8.13;3.53;;;10.20;99.90;;;;;;5052541;28;20013;-63
2022/04/27 05:14:21;;;;;;;8.70;4.15;;;10.20;99.90;;;;;;5053005;28;20021;-66
2022/04/27 05:16:46;;;;;;;12.48;4.55;;;10.20;99.90;;;;;;5053556;28;20025;-67
2022/04/27 05:19:12;;;;;;;8.43;3.88;;;10.30;99.90;;;;;;5052063;28;20043;-64
2022/04/27 05:21:37;;;;;;;8.98;3.88;;;10.30;99.90;;;;;;5053095;28;20053;-64
2022/04/27 05:24:03;;;;;;;10.23;4.93;;;10.40;99.90;;;;;;5047668;28;20029;-64
2022/04/27 05:26:29;;;;;;;9.45;3.00;;;10.40;99.90;;;;;;5033367;28;20032;-62
2022/04/27 05:34:30;;;;;;;14.23;4.50;;;10.50;99.90;;;;;;5033446;28;20075;-64
2022/04/27 05:36:56;;;;;;;8.57;3.90;;;10.50;99.90;;;;;;5033553;28;20510;-64
2022/04/27 05:39:22;;;;;;;8.93;3.30;;;10.50;99.90;;;;;;5033090;28;20049;-63
2022/04/27 05:41:50;;;;;;;8.80;3.78;;;10.50;99.90;;;;;;5033632;28;20052;-63
2022/04/27 05:44:16;;;;;;;7.88;3.53;;;10.60;99.90;;;;;;5033280;28;20579;-64
2022/04/27 05:46:42;;;;;;;8.27;3.47;;;10.60;99.90;;;;;;5033007;28;20021;-65
2022/04/27 05:49:08;;;;;;;13.02;4.55;;;10.60;99.90;;;;;;5033170;28;20460;-64
2022/04/27 05:51:34;;;;;;;10.93;3.97;;;10.70;99.90;;;;;;5038237;28;20024;-64
2022/04/27 05:54:00;;;;;;;12.27;4.03;;;10.80;99.90;;;;;;5053010;28;20021;-64
2022/04/27 05:56:26;;;;;;;7.18;3.85;;;10.80;99.90;;;;;;5052854;28;20342;-65
2022/04/27 05:58:51;;;;;;;10.55;3.58;;;10.80;99.90;;;;;;5053148;28;20017;-64
2022/04/27 06:01:18;;;;;;;12.95;3.30;;;10.90;99.90;;;;;;5052711;28;20075;-63
2022/04/27 06:03:44;;;;;;;5.32;2.83;;;10.90;99.90;;;;;;5052847;28;20021;-64
2022/04/27 06:06:10;;;;;;;8.00;2.65;;;11.00;99.90;;;;;;5052938;28;20415;-64
2022/04/27 06:08:35;;;;;;;5.82;2.63;;;11.00;99.90;;;;;;5052368;28;20384;-64
2022/04/27 06:11:01;;;;;;;7.78;2.40;;;11.00;99.90;;;;;;5053187;28;20036;-64
2022/04/27 06:13:27;;;;;;;5.95;2.50;;;11.00;99.90;;;;;;5053114;28;20396;-65
2022/04/27 06:15:52;;;;;;;7.93;2.67;;;11.10;99.90;;;;;;5053379;28;20029;-65
2022/04/27 06:18:18;;;;;;;7.43;2.22;;;11.10;99.90;;;;;;5053092;28;20392;-64
2022/04/27 06:20:44;;;;;;;7.40;2.15;;;11.10;99.90;;;;;;5053011;28;20032;-64
2022/04/27 06:23:09;;;;;;;4.30;1.90;;;11.20;99.90;;;;;;5052550;28;20021;-65
2022/04/27 06:25:39;;;;;;;6.43;3.42;;;11.20;99.90;;;;;;5052696;28;20043;-67
2022/04/27 06:28:05;;;;;;;12.43;2.78;;;11.30;99.90;;;;;;5053249;28;20056;-66
2022/04/27 06:30:30;;;;;;;5.82;3.08;;;11.30;99.90;;;;;;5053559;28;20029;-64
2022/04/27 06:32:56;;;;;;;5.85;2.40;;;11.30;99.90;;;;;;5052869;28;20025;-65
2022/04/27 06:35:21;;;;;;;5.45;2.28;;;11.40;99.90;;;;;;5052828;28;20420;-66
2022/04/27 06:37:47;;;;;;;9.20;2.55;;;11.40;99.90;;;;;;5056201;28;20457;-68
2022/04/27 06:40:12;;;;;;;6.68;2.15;;;11.40;99.90;;;;;;5055809;28;20025;-64
2022/04/27 06:42:42;;;;;;;6.53;2.35;;;11.50;99.90;;;;;;5056047;28;20052;-64
2022/04/27 06:45:08;;;;;;;7.20;2.63;;;11.50;99.90;;;;;;5056388;28;20028;-64
2022/04/27 06:47:34;;;;;;;10.75;2.85;;;11.60;99.90;;;;;;5054967;28;20421;-66
2022/04/27 06:49:59;;;;;;;6.43;2.35;;;11.70;99.90;;;;;;5054875;28;20060;-64
2022/04/27 06:52:25;;;;;;;8.65;3.17;;;11.80;99.90;;;;;;5056084;28;20100;-64
2022/04/27 06:54:50;;;;;;;5.90;2.50;;;11.80;99.90;;;;;;5056265;28;20028;-64
2022/04/27 06:57:16;;;;;;;7.25;2.85;;;11.90;99.90;;;;;;5056229;28;20021;-63
2022/04/27 06:59:41;;;;;;;5.53;2.17;;;12.00;99.90;;;;;;5054741;28;20036;-63
2022/04/27 07:02:10;;;;;;;5.60;2.75;;;12.00;99.90;;;;;;5055043;28;20033;-63
2022/04/27 07:04:37;;;;;;;9.05;3.28;;;12.10;99.90;;;;;;5056327;28;20032;-63
2022/04/27 07:07:04;;;;;;;10.65;3.55;;;12.20;99.90;;;;;;5055795;28;20533;-64
2022/04/27 07:09:33;;;;;;;7.22;3.10;;;12.30;99.90;;;;;;5056053;28;20021;-64
2022/04/27 07:11:59;;;;;;;6.97;2.47;;;12.30;99.90;;;;;;5055920;28;20095;-64
2022/04/27 07:14:24;;;;;;;8.25;2.08;;;12.40;99.90;;;;;;5056102;28;20108;-64
2022/04/27 07:16:50;;;;;;;8.88;2.63;;;12.40;99.90;;;;;;5054965;28;20021;-63
2022/04/27 07:19:16;;;;;;;6.55;2.25;;;12.20;99.90;;;;;;5055530;28;20075;-64
2022/04/27 07:21:41;;;;;;;7.72;2.78;;;12.10;99.90;;;;;;5055513;28;20088;-63
2022/04/27 07:24:07;;;;;;;5.63;2.33;;;12.00;99.90;;;;;;5052620;28;20044;-63
2022/04/27 07:26:33;;;;;;;8.35;2.40;;;11.90;99.90;;;;;;5038000;28;20025;-66
2022/04/27 07:28:59;;;;;;;8.25;2.30;;;11.80;99.90;;;;;;5035684;28;20392;-68
2022/04/27 07:31:26;;;;;;;11.98;2.85;;;11.80;99.90;;;;;;5035808;28;20027;-65
2022/04/27 07:33:52;;;;;;;11.25;2.35;;;11.70;99.90;;;;;;5051396;28;20025;-64
2022/04/27 07:36:18;;;;;;;13.40;3.47;;;11.70;99.90;;;;;;5055147;28;20048;-63
2022/04/27 07:38:44;;;;;;;10.07;2.72;;;11.70;99.90;;;;;;5054088;28;20453;-64
2022/04/27 07:41:09;;;;;;;11.65;3.40;;;11.60;99.90;;;;;;5054184;28;20075;-66
2022/04/27 07:43:35;;;;;;;15.77;3.47;;;11.60;99.90;;;;;;5054620;28;20032;-66
2022/04/27 07:46:02;;;;;;;11.07;2.42;;;11.70;99.90;;;;;;5054389;28;20105;-65
2022/04/27 07:48:32;;;;;;;12.90;2.85;;;11.70;99.90;;;;;;5052528;28;20045;-65
2022/04/27 07:51:01;;;;;;;10.95;2.85;;;11.80;99.90;;;;;;5054400;28;20021;-68
2022/04/27 07:53:27;;;;;;;8.82;2.50;;;11.80;99.90;;;;;;5054118;28;20025;-66
2022/04/27 07:55:53;;;;;;;11.70;2.92;;;11.90;99.90;;;;;;5053271;28;20028;-64
2022/04/27 07:58:19;;;;;;;15.60;3.00;;;11.80;99.90;;;;;;5054996;28;20367;-63
2022/04/27 08:00:44;;;;;;;11.20;2.90;;;11.90;99.90;;;;;;5054061;28;20384;-64
2022/04/27 08:03:10;;;;;;;14.60;2.85;;;11.90;99.90;;;;;;5056871;28;20012;-67
2022/04/27 08:05:36;;;;;;;12.32;2.75;;;11.90;99.90;;;;;;5074671;28;20418;-63
2022/04/27 08:08:01;;;;;;;11.27;2.95;;;12.00;99.90;;;;;;5070988;28;20041;-63
2022/04/27 08:10:27;;;;;;;13.43;2.85;;;12.10;99.90;;;;;;5053229;28;20025;-64
2022/04/27 08:12:53;;;;;;;10.48;2.92;;;12.10;99.90;;;;;;5054241;28;20017;-64
2022/04/27 08:15:21;;;;;;;13.10;3.25;;;12.10;99.90;;;;;;5053365;28;20446;-63
2022/04/27 08:17:59;;;;;;;8.02;2.58;;;12.10;99.90;;;;;;5054103;28;20111;-63
2022/04/27 08:23:14;;;;;;;9.20;2.38;;;12.20;99.90;;;;;;5054587;28;20024;-64
2022/04/27 08:25:40;;;;;;;5.50;2.22;;;12.30;99.90;;;;;;5053935;28;20095;-63
2022/04/27 08:28:07;;;;;;;10.50;2.90;;;12.40;99.90;;;;;;5053967;28;20040;-64
2022/04/27 08:30:38;;;;;;;18.45;3.05;;;12.40;99.90;;;;;;5053568;28;20029;-64
2022/04/27 08:33:05;;;;;;;9.77;3.05;;;12.50;99.90;;;;;;5054126;28;20028;-63
2022/04/27 08:35:31;;;;;;;12.02;2.70;;;12.60;99.90;;;;;;5053357;28;20477;-63
2022/04/27 08:38:01;;;;;;;7.72;2.33;;;12.70;99.90;;;;;;5052868;28;20049;-62
2022/04/27 08:40:27;;;;;;;6.97;2.60;;;12.70;99.90;;;;;;5052153;28;20021;-63
2022/04/27 08:42:54;;;;;;;13.23;2.80;;;12.80;99.90;;;;;;5052706;28;20064;-64
2022/04/27 08:45:20;;;;;;;7.68;1.70;;;12.80;99.90;;;;;;5053608;28;20037;-64
2022/04/27 08:47:47;;;;;;;9.85;2.63;;;13.00;99.90;;;;;;5052805;28;20040;-63
2022/04/27 08:50:17;;;;;;;7.43;1.95;;;13.10;99.80;;;;;;5051681;28;20017;-64
2022/04/27 08:52:44;;;;;;;8.00;2.53;;;13.10;99.80;;;;;;5053829;28;20020;-66
2022/04/27 08:55:11;;;;;;;10.38;2.47;;;13.20;99.70;;;;;;5051959;28;20529;-65
2022/04/27 08:57:37;;;;;;;14.95;3.15;;;13.40;99.20;;;;;;5053945;28;20359;-65
2022/04/27 09:00:06;;;;;;;8.43;2.28;;;13.40;99.40;;;;;;5051853;28;20398;-66
2022/04/27 09:02:32;;;;;;;10.45;2.45;;;13.40;99.20;;;;;;5053392;28;20112;-66
2022/04/27 09:05:10;;;;;;;6.18;1.77;;;13.50;99.10;;;;;;5052844;28;20107;-64
2022/04/27 09:07:46;;;;;;;11.57;2.30;;;13.50;98.40;;;;;;5052833;28;20052;-66
2022/04/27 09:10:17;;;;;;;17.88;2.78;;;13.40;98.50;;;;;;5053312;28;20025;-66
2022/04/27 09:12:51;;;;;;;13.90;2.75;;;13.40;98.90;;;;;;5053395;28;20047;-65
2022/04/27 09:15:18;;;;;;;17.17;2.60;;;13.50;98.80;;;;;;5053037;28;20029;-65
2022/04/27 09:20:49;;;;;;;10.93;2.80;;;13.60;98.90;;;;;;5033290;28;20112;-68
2022/04/27 09:23:23;;;;;;;17.15;2.70;;;13.70;98.70;;;;;;5039360;28;20013;-66
2022/04/27 09:25:51;;;;;;;11.43;2.53;;;13.90;98.80;;;;;;5053048;28;20122;-65
2022/04/27 09:28:17;;;;;;;12.23;2.70;;;14.00;98.50;;;;;;5052770;28;20049;-67
2022/04/27 09:30:44;;;;;;;13.98;2.88;;;14.10;98.20;;;;;;5052097;28;20100;-66
2022/04/27 09:33:10;;;;;;;13.70;3.08;;;14.20;97.90;;;;;;5051563;28;20426;-64
2022/04/27 09:35:37;;;;;;;11.73;2.42;;;14.30;97.80;;;;;;5051321;28;20056;-65
2022/04/27 09:38:15;;;;;;;14.20;3.15;;;14.20;97.70;;;;;;5051932;28;20114;-67
2022/04/27 09:40:49;;;;;;;12.15;2.72;;;14.10;97.80;;;;;;5051590;28;20096;-65
2022/04/27 09:43:16;;;;;;;12.68;2.72;;;14.10;98.20;;;;;;5050003;28;20048;-65
2022/04/27 09:45:43;;;;;;;13.10;2.92;;;14.00;98.00;;;;;;5051634;28;20110;-68
2022/04/27 09:48:17;;;;;;;13.77;3.80;;;14.00;98.20;;;;;;5052758;28;20021;-65
2022/04/27 09:50:50;;;;;;;13.40;3.33;;;14.00;98.20;;;;;;5053005;28;20031;-65
2022/04/27 09:53:17;;;;;;;12.80;3.70;;;14.00;98.10;;;;;;5052331;28;20386;-66
2022/04/27 09:55:51;;;;;;;15.00;2.60;;;14.00;97.90;;;;;;5052629;28;20016;-62
2022/04/27 09:58:18;;;;;;;17.48;4.00;;;13.90;97.90;;;;;;5051277;28;20116;-67
2022/04/27 10:00:45;;;;;;;14.55;3.67;;;13.90;98.00;;;;;;5052280;28;20457;-67
2022/04/27 10:03:14;;;;;;;13.38;3.40;;;13.90;98.00;;;;;;5052728;28;20488;-64
2022/04/27 10:05:41;;;;;;;6.63;1.98;;;13.90;98.00;;;;;;5052614;28;20028;-65
2022/04/27 10:08:08;;;;;;;12.48;3.85;;;13.90;97.60;;;;;;5052428;28;20017;-66
2022/04/27 10:10:37;;;;;;;9.88;2.72;;;13.80;97.80;;;;;;5053685;28;20049;-63
2022/04/27 10:13:02;;;;;;;19.27;5.15;;;13.80;97.60;;;;;;5056261;28;20024;-63
2022/04/27 10:15:30;;;;;;;13.75;3.35;;;13.70;97.70;;;;;;5057275;28;20468;-65
2022/04/27 10:17:55;;;;;;;10.95;2.65;;;13.60;97.40;;;;;;5056831;28;20373;-64
2022/04/27 10:20:34;;;;;;;11.05;2.42;;;13.50;97.50;;;;;;5073285;28;20017;-65
2022/04/27 10:23:19;;;;;;;17.02;4.60;;;13.50;97.40;;;;;;5055948;28;20032;-65
2022/04/27 10:26:07;;;;;;;11.77;2.42;;;13.50;97.50;;;;;;5072342;28;20076;-65
2022/04/27 10:28:35;;;;;;;10.63;3.40;;;13.50;97.40;;;;;;5055435;28;20500;-67
2022/04/27 10:31:04;;;;;;;12.45;2.92;;;13.50;97.50;;;;;;5055674;28;20100;-65
2022/04/27 10:33:49;;;;;;;12.35;3.67;;;13.50;97.20;;;;;;5069360;28;20112;-65
2022/04/27 10:36:23;;;;;;;12.00;2.70;;;13.50;97.00;;;;;;5056197;28;20087;-63
2022/04/27 10:39:14;;;;;;;7.40;1.70;;;13.60;96.70;;;;;;5046921;28;20036;-68
2022/04/27 10:41:41;;;;;;;14.20;2.72;;;13.60;96.40;;;;;;5036174;28;20143;-64
2022/04/27 10:44:06;;;;;;;10.27;2.20;;;13.60;96.40;;;;;;5048202;28;20052;-64
2022/04/27 10:46:39;;;;;;;8.30;2.17;;;13.60;96.40;;;;;;5055233;28;20032;-63
2022/04/27 10:49:22;;;;;;;10.75;2.50;;;13.50;96.40;;;;;;5063722;28;20020;-63
2022/04/27 10:52:06;;;;;;;7.57;2.65;;;13.40;96.60;;;;;;5068362;28;20361;-62
2022/04/27 10:54:34;;;;;;;8.32;2.22;;;13.50;96.50;;;;;;5055761;28;20021;-67
2022/04/27 10:57:15;;;;;;;13.10;2.67;;;13.50;96.20;;;;;;5054825;28;20100;-63
2022/04/27 10:59:49;;;;;;;9.57;1.92;;;13.70;96.20;;;;;;5055692;28;20021;-63
2022/04/27 11:02:47;;;;;;;12.02;2.78;;;13.80;96.30;;;;;;5055734;28;20407;-63
2022/04/27 11:05:15;;;;;;;26.77;11.23;;;13.90;95.40;;;;;;5054116;28;20053;-64
2022/04/27 11:07:59;;;;;;;18.98;5.38;;;14.00;96.00;;;;;;5055980;28;20055;-63
2022/04/27 11:10:25;;;;;;;20.25;6.30;;;14.10;96.20;;;;;;5065811;28;20487;-64
2022/04/27 11:12:52;;;;;;;14.57;5.07;;;14.20;95.90;;;;;;5056205;28;20103;-64
2022/04/27 11:15:21;;;;;;;17.60;5.05;;;14.30;95.90;;;;;;5055544;28;20021;-64
2022/04/27 11:18:01;;;;;;;13.43;4.57;;;14.40;95.70;;;;;;5044864;28;20497;-63
2022/04/27 11:20:35;;;;;;;20.58;4.82;;;14.50;95.50;;;;;;5055749;28;20035;-63
2022/04/27 11:23:03;;;;;;;19.77;4.25;;;14.60;95.30;;;;;;5060266;28;20020;-64
2022/04/27 11:25:30;;;;;;;12.85;3.65;;;14.70;95.20;;;;;;5075265;28;20368;-63
2022/04/27 11:27:57;;;;;;;11.57;2.72;;;14.90;95.10;;;;;;5073958;28;20048;-63
2022/04/27 11:30:24;;;;;;;12.75;3.30;;;15.10;94.70;;;;;;5075491;28;20056;-63
2022/04/27 11:32:52;;;;;;;17.88;3.25;;;15.20;94.20;;;;;;5075632;28;20017;-64
2022/04/27 11:35:23;;;;;;;20.35;4.28;;;15.40;94.00;;;;;;5074519;28;20019;-64
2022/04/27 11:37:52;;;;;;;16.23;3.63;;;15.40;94.00;;;;;;5055200;28;20384;-63
2022/04/27 11:40:19;;;;;;;13.23;3.78;;;15.60;93.80;;;;;;5060706;28;20064;-64
2022/04/27 11:42:48;;;;;;;17.98;3.40;;;15.70;93.40;;;;;;5075736;28;20012;-63
2022/04/27 11:45:19;;;;;;;15.15;3.90;;;15.80;93.00;;;;;;5066188;28;20037;-65
2022/04/27 11:48:02;;;;;;;8.80;2.72;;;15.90;93.10;;;;;;5055467;28;20021;-63
2022/04/27 11:50:30;;;;;;;9.50;2.75;;;16.10;92.80;;;;;;5055070;28;20020;-63
2022/04/27 11:53:20;;;;;;;9.60;2.78;;;16.30;92.50;;;;;;5046146;28;20052;-63
2022/04/27 11:55:50;;;;;;;12.43;2.90;;;16.60;92.10;;;;;;5052375;28;20021;-62
2022/04/27 11:58:27;;;;;;;13.32;3.00;;;16.90;91.60;;;;;;5053045;28;20025;-63
2022/04/27 12:00:57;;;;;;;14.40;2.92;;;17.00;91.40;;;;;;5054630;28;20021;-63
2022/04/27 12:03:24;;;;;;;8.57;2.33;;;17.30;90.50;;;;;;5054936;28;20033;-63
2022/04/27 12:05:51;;;;;;;14.48;2.90;;;17.40;90.30;;;;;;5054922;28;20028;-63
2022/04/27 12:08:22;;;;;;;13.63;2.72;;;17.50;90.00;;;;;;5053025;28;20439;-63
2022/04/27 12:10:49;;;;;;;11.32;2.60;;;17.70;88.90;;;;;;5053155;28;20025;-63
2022/04/27 12:13:19;;;;;;;9.93;2.03;;;17.80;89.20;;;;;;5054271;28;20163;-63
2022/04/27 12:15:55;;;;;;;9.10;2.20;;;18.10;88.00;;;;;;5052558;28;20032;-62
2022/04/27 12:18:26;;;;;;;8.52;2.40;;;18.20;87.20;;;;;;5053451;28;20021;-63
2022/04/27 12:20:55;;;;;;;9.77;2.63;;;18.40;86.50;;;;;;5053449;28;20017;-63
2022/04/27 12:23:23;;;;;;;9.30;2.53;;;18.50;85.80;;;;;;5053278;28;20304;-65
2022/04/27 12:26:01;;;;;;;10.25;2.40;;;18.60;85.10;;;;;;5053948;28;20047;-66
2022/04/27 12:28:49;;;;;;;9.95;2.42;;;18.70;84.70;;;;;;5054364;28;20047;-64
2022/04/27 12:31:16;;;;;;;7.55;2.50;;;18.80;83.90;;;;;;5054556;28;20021;-64
2022/04/27 12:33:45;;;;;;;10.65;2.50;;;18.90;83.40;;;;;;5054170;28;20067;-64
2022/04/27 12:39:05;;;;;;;10.18;2.47;;;19.20;80.80;;;;;;5052430;28;20032;-63
2022/04/27 12:42:08;;;;;;;10.60;2.30;;;19.10;80.60;;;;;;5039841;28;20053;-64
2022/04/27 12:44:41;;;;;;;8.15;2.30;;;19.10;80.50;;;;;;5033722;28;20148;-68
2022/04/27 12:47:10;;;;;;;10.68;2.40;;;19.10;80.50;;;;;;5052662;28;20031;-63
2022/04/27 12:49:37;;;;;;;8.50;1.98;;;19.30;80.10;;;;;;5057275;28;20044;-63
2022/04/27 12:52:23;;;;;;;8.82;1.98;;;19.30;79.50;;;;;;5065545;28;20057;-63
2022/04/27 12:54:50;;;;;;;6.10;1.95;;;19.30;79.60;;;;;;5060453;28;20070;-63
2022/04/27 12:57:16;;;;;;;10.02;2.20;;;19.40;78.10;;;;;;5073730;28;20021;-63
2022/04/27 12:59:55;;;;;;;5.70;1.60;;;19.30;78.80;;;;;;5073916;28;20031;-63
2022/04/27 13:02:22;;;;;;;7.13;2.33;;;19.40;78.20;;;;;;5073942;28;20032;-62
2022/04/27 13:04:48;;;;;;;6.15;1.98;;;19.60;78.10;;;;;;5055218;28;20017;-63
2022/04/27 13:07:13;;;;;;;5.70;1.80;;;19.70;77.90;;;;;;5053699;28;20372;-66
2022/04/27 13:12:31;;;;;;;5.25;1.55;;;20.10;76.10;;;;;;5053589;28;20040;-65
2022/04/27 13:14:58;;;;;;;5.93;1.38;;;20.30;75.80;;;;;;5053844;28;20029;-63
2022/04/27 13:17:23;;;;;;;4.78;1.65;;;20.50;75.30;;;;;;5053701;28;20025;-64